Butte Valley, California
Current Conditions -  °F | °C
As of 11:53 AM on Friday 31 Oct 2014 (Local Time) from KOVE Reporting Station
Heavy Rain Heavy Rain  
Wind Chill: 59°   Ceiling: 6000
Heat Index: 59°   Visibility: 3mi
Dew Point: 56°   Wind: 13mph
Humidity: 90%   Direction: 140°SE
Pressure: 29.87"   Gusts: NA
Location:  39.5324°N, 121.648°W
Report Text: KOVE 311853Z AUTO 14011KT 3SM +RA BR BKN060 OVC075 15/13 A2987 RMK AO2 SLP117 P0021 T01500133
Loading
Personal Weather Stations






























Interactive Weather Map
Tropical Storm Tracking
New forecast layout! Learn more

10-Day Weather Forecast

Advertisements
Track Severe Weather on mobile